sensor_id;sensor_type;location;lat;lon;timestamp;temperature;humidity
13707;DHT22;6925;47.816;13.072;2023-07-13T00:01:50;21.80;81.10
13707;DHT22;6925;47.816;13.072;2023-07-13T00:04:18;21.80;81.40
13707;DHT22;6925;47.816;13.072;2023-07-13T00:06:45;21.70;82.00
13707;DHT22;6925;47.816;13.072;2023-07-13T00:09:13;21.60;81.20
13707;DHT22;6925;47.816;13.072;2023-07-13T00:11:41;21.60;81.90
13707;DHT22;6925;47.816;13.072;2023-07-13T00:14:08;21.60;82.40
13707;DHT22;6925;47.816;13.072;2023-07-13T00:16:37;21.60;82.80
13707;DHT22;6925;47.816;13.072;2023-07-13T00:19:06;21.60;83.20
13707;DHT22;6925;47.816;13.072;2023-07-13T00:21:33;21.60;83.10
13707;DHT22;6925;47.816;13.072;2023-07-13T00:24:00;21.50;82.80
13707;DHT22;6925;47.816;13.072;2023-07-13T00:26:28;21.50;83.70
13707;DHT22;6925;47.816;13.072;2023-07-13T00:28:55;21.50;83.90
13707;DHT22;6925;47.816;13.072;2023-07-13T00:31:22;21.50;84.30
13707;DHT22;6925;47.816;13.072;2023-07-13T00:33:49;21.50;84.30
13707;DHT22;6925;47.816;13.072;2023-07-13T00:36:19;21.40;84.30
13707;DHT22;6925;47.816;13.072;2023-07-13T00:38:46;21.40;84.60
13707;DHT22;6925;47.816;13.072;2023-07-13T00:41:14;21.30;84.80
13707;DHT22;6925;47.816;13.072;2023-07-13T00:43:41;21.20;85.70
13707;DHT22;6925;47.816;13.072;2023-07-13T00:46:21;21.20;86.70
13707;DHT22;6925;47.816;13.072;2023-07-13T00:48:49;21.20;86.60
13707;DHT22;6925;47.816;13.072;2023-07-13T00:51:22;21.30;85.80
13707;DHT22;6925;47.816;13.072;2023-07-13T00:53:51;21.30;85.40
13707;DHT22;6925;47.816;13.072;2023-07-13T00:56:19;21.20;84.40
13707;DHT22;6925;47.816;13.072;2023-07-13T00:58:47;21.20;85.00
13707;DHT22;6925;47.816;13.072;2023-07-13T01:01:15;21.10;84.60
13707;DHT22;6925;47.816;13.072;2023-07-13T01:03:42;21.00;84.70
13707;DHT22;6925;47.816;13.072;2023-07-13T01:06:09;20.80;85.10
13707;DHT22;6925;47.816;13.072;2023-07-13T01:08:38;20.70;85.30
13707;DHT22;6925;47.816;13.072;2023-07-13T01:11:06;20.70;85.50
13707;DHT22;6925;47.816;13.072;2023-07-13T01:13:34;20.70;86.10
13707;DHT22;6925;47.816;13.072;2023-07-13T01:16:03;20.70;86.10
13707;DHT22;6925;47.816;13.072;2023-07-13T01:18:33;20.60;85.80
13707;DHT22;6925;47.816;13.072;2023-07-13T01:21:03;20.60;85.80
13707;DHT22;6925;47.816;13.072;2023-07-13T01:23:31;20.60;86.40
13707;DHT22;6925;47.816;13.072;2023-07-13T01:25:58;20.50;86.00
13707;DHT22;6925;47.816;13.072;2023-07-13T01:28:27;20.50;86.00
13707;DHT22;6925;47.816;13.072;2023-07-13T01:30:55;20.60;87.10
13707;DHT22;6925;47.816;13.072;2023-07-13T01:33:22;20.50;87.30
13707;DHT22;6925;47.816;13.072;2023-07-13T01:35:50;20.50;87.80
13707;DHT22;6925;47.816;13.072;2023-07-13T01:38:20;20.50;88.00
13707;DHT22;6925;47.816;13.072;2023-07-13T01:40:48;20.50;87.10
13707;DHT22;6925;47.816;13.072;2023-07-13T01:43:15;20.50;87.20
13707;DHT22;6925;47.816;13.072;2023-07-13T01:45:42;20.40;87.90
13707;DHT22;6925;47.816;13.072;2023-07-13T01:48:10;20.50;88.40
13707;DHT22;6925;47.816;13.072;2023-07-13T01:50:37;20.60;88.10
13707;DHT22;6925;47.816;13.072;2023-07-13T01:53:05;20.50;88.20
13707;DHT22;6925;47.816;13.072;2023-07-13T01:55:33;20.50;88.30
13707;DHT22;6925;47.816;13.072;2023-07-13T01:58:01;20.50;88.20
13707;DHT22;6925;47.816;13.072;2023-07-13T02:00:28;20.50;88.90
13707;DHT22;6925;47.816;13.072;2023-07-13T02:02:55;20.50;89.40
13707;DHT22;6925;47.816;13.072;2023-07-13T02:05:22;20.50;90.20
13707;DHT22;6925;47.816;13.072;2023-07-13T02:07:49;20.50;89.90
13707;DHT22;6925;47.816;13.072;2023-07-13T02:10:16;20.40;89.80
13707;DHT22;6925;47.816;13.072;2023-07-13T02:12:45;20.40;90.10
13707;DHT22;6925;47.816;13.072;2023-07-13T02:15:12;20.40;90.10
13707;DHT22;6925;47.816;13.072;2023-07-13T02:17:39;20.40;90.40
13707;DHT22;6925;47.816;13.072;2023-07-13T02:20:07;20.40;90.10
13707;DHT22;6925;47.816;13.072;2023-07-13T02:22:35;20.40;90.30
13707;DHT22;6925;47.816;13.072;2023-07-13T02:25:02;20.30;90.20
13707;DHT22;6925;47.816;13.072;2023-07-13T02:27:29;20.30;90.30
13707;DHT22;6925;47.816;13.072;2023-07-13T02:29:57;20.40;90.40
13707;DHT22;6925;47.816;13.072;2023-07-13T02:32:24;20.40;90.00
13707;DHT22;6925;47.816;13.072;2023-07-13T02:34:51;20.40;88.80
13707;DHT22;6925;47.816;13.072;2023-07-13T02:37:19;20.40;89.20
13707;DHT22;6925;47.816;13.072;2023-07-13T02:39:47;20.40;89.00
13707;DHT22;6925;47.816;13.072;2023-07-13T02:42:14;20.40;88.70
13707;DHT22;6925;47.816;13.072;2023-07-13T02:44:41;20.40;88.50
13707;DHT22;6925;47.816;13.072;2023-07-13T02:47:09;20.40;88.50
13707;DHT22;6925;47.816;13.072;2023-07-13T02:49:38;20.40;89.40
13707;DHT22;6925;47.816;13.072;2023-07-13T02:52:05;20.50;89.40
13707;DHT22;6925;47.816;13.072;2023-07-13T02:54:32;20.50;89.00
13707;DHT22;6925;47.816;13.072;2023-07-13T02:56:59;20.50;89.10
13707;DHT22;6925;47.816;13.072;2023-07-13T02:59:26;20.60;89.60
13707;DHT22;6925;47.816;13.072;2023-07-13T03:01:53;20.60;89.00
13707;DHT22;6925;47.816;13.072;2023-07-13T03:04:21;20.50;87.80
13707;DHT22;6925;47.816;13.072;2023-07-13T03:06:49;20.50;88.10
13707;DHT22;6925;47.816;13.072;2023-07-13T03:09:16;20.40;88.40
13707;DHT22;6925;47.816;13.072;2023-07-13T03:11:44;20.50;90.00
13707;DHT22;6925;47.816;13.072;2023-07-13T03:14:10;20.50;90.10
13707;DHT22;6925;47.816;13.072;2023-07-13T03:16:37;20.60;89.60
13707;DHT22;6925;47.816;13.072;2023-07-13T03:19:05;20.60;89.80
13707;DHT22;6925;47.816;13.072;2023-07-13T03:21:33;20.70;89.40
13707;DHT22;6925;47.816;13.072;2023-07-13T03:24:00;20.70;89.30
13707;DHT22;6925;47.816;13.072;2023-07-13T03:26:27;20.80;88.70
13707;DHT22;6925;47.816;13.072;2023-07-13T03:28:54;20.70;87.80
13707;DHT22;6925;47.816;13.072;2023-07-13T03:31:22;20.60;87.30
13707;DHT22;6925;47.816;13.072;2023-07-13T03:33:49;20.70;86.60
13707;DHT22;6925;47.816;13.072;2023-07-13T03:36:18;20.60;87.80
13707;DHT22;6925;47.816;13.072;2023-07-13T03:38:48;20.70;87.90
13707;DHT22;6925;47.816;13.072;2023-07-13T03:41:16;20.70;88.20
13707;DHT22;6925;47.816;13.072;2023-07-13T03:43:43;20.70;88.10
13707;DHT22;6925;47.816;13.072;2023-07-13T03:46:09;20.80;88.30
13707;DHT22;6925;47.816;13.072;2023-07-13T03:48:37;20.80;87.30
13707;DHT22;6925;47.816;13.072;2023-07-13T03:51:05;20.80;87.40
13707;DHT22;6925;47.816;13.072;2023-07-13T03:53:32;20.80;86.50
13707;DHT22;6925;47.816;13.072;2023-07-13T03:56:00;20.70;86.40
13707;DHT22;6925;47.816;13.072;2023-07-13T03:58:32;20.70;87.40
13707;DHT22;6925;47.816;13.072;2023-07-13T04:01:01;20.70;86.50
13707;DHT22;6925;47.816;13.072;2023-07-13T04:03:29;20.70;87.00
13707;DHT22;6925;47.816;13.072;2023-07-13T04:05:59;20.70;86.70
13707;DHT22;6925;47.816;13.072;2023-07-13T04:08:27;20.70;86.00
13707;DHT22;6925;47.816;13.072;2023-07-13T04:10:54;20.60;86.60
13707;DHT22;6925;47.816;13.072;2023-07-13T04:13:23;20.60;86.70
13707;DHT22;6925;47.816;13.072;2023-07-13T04:15:51;20.70;87.20
13707;DHT22;6925;47.816;13.072;2023-07-13T04:18:18;20.70;88.20
13707;DHT22;6925;47.816;13.072;2023-07-13T04:20:45;20.70;86.70
13707;DHT22;6925;47.816;13.072;2023-07-13T04:23:12;20.70;86.80
13707;DHT22;6925;47.816;13.072;2023-07-13T04:25:42;20.70;87.40
13707;DHT22;6925;47.816;13.072;2023-07-13T04:28:10;20.70;86.30
13707;DHT22;6925;47.816;13.072;2023-07-13T04:30:39;20.70;86.20
13707;DHT22;6925;47.816;13.072;2023-07-13T04:33:06;20.60;86.40
13707;DHT22;6925;47.816;13.072;2023-07-13T04:35:34;20.70;87.60
13707;DHT22;6925;47.816;13.072;2023-07-13T04:38:01;20.70;86.10
13707;DHT22;6925;47.816;13.072;2023-07-13T04:40:28;20.70;86.50
13707;DHT22;6925;47.816;13.072;2023-07-13T04:42:56;20.80;86.10
13707;DHT22;6925;47.816;13.072;2023-07-13T04:45:24;20.70;86.30
13707;DHT22;6925;47.816;13.072;2023-07-13T04:47:52;20.80;86.10
13707;DHT22;6925;47.816;13.072;2023-07-13T04:50:19;20.70;85.70
13707;DHT22;6925;47.816;13.072;2023-07-13T04:52:49;20.70;85.90
13707;DHT22;6925;47.816;13.072;2023-07-13T04:55:16;20.70;86.20
13707;DHT22;6925;47.816;13.072;2023-07-13T04:57:44;20.60;86.50
13707;DHT22;6925;47.816;13.072;2023-07-13T05:00:12;20.50;86.80
13707;DHT22;6925;47.816;13.072;2023-07-13T05:02:44;20.50;87.40
13707;DHT22;6925;47.816;13.072;2023-07-13T05:05:13;20.60;88.20
13707;DHT22;6925;47.816;13.072;2023-07-13T05:07:40;20.60;87.70
13707;DHT22;6925;47.816;13.072;2023-07-13T05:10:07;20.70;88.30
13707;DHT22;6925;47.816;13.072;2023-07-13T05:12:34;20.70;87.60
13707;DHT22;6925;47.816;13.072;2023-07-13T05:15:01;20.70;87.80
13707;DHT22;6925;47.816;13.072;2023-07-13T05:17:28;20.70;87.70
13707;DHT22;6925;47.816;13.072;2023-07-13T05:19:55;20.70;88.40
13707;DHT22;6925;47.816;13.072;2023-07-13T05:22:23;20.80;88.50
13707;DHT22;6925;47.816;13.072;2023-07-13T05:24:50;20.90;88.20
13707;DHT22;6925;47.816;13.072;2023-07-13T05:27:18;20.90;87.70
13707;DHT22;6925;47.816;13.072;2023-07-13T05:29:44;20.90;87.70
13707;DHT22;6925;47.816;13.072;2023-07-13T05:32:11;20.90;87.90
13707;DHT22;6925;47.816;13.072;2023-07-13T05:34:38;20.90;87.60
13707;DHT22;6925;47.816;13.072;2023-07-13T05:37:05;20.80;88.10
13707;DHT22;6925;47.816;13.072;2023-07-13T05:39:34;20.80;88.30
13707;DHT22;6925;47.816;13.072;2023-07-13T05:42:02;20.90;88.00
13707;DHT22;6925;47.816;13.072;2023-07-13T05:44:29;20.90;87.40
13707;DHT22;6925;47.816;13.072;2023-07-13T05:46:56;20.90;87.60
13707;DHT22;6925;47.816;13.072;2023-07-13T05:49:23;20.90;86.10
13707;DHT22;6925;47.816;13.072;2023-07-13T05:51:50;21.00;86.80
13707;DHT22;6925;47.816;13.072;2023-07-13T05:54:17;21.00;86.70
13707;DHT22;6925;47.816;13.072;2023-07-13T05:56:45;21.10;86.70
13707;DHT22;6925;47.816;13.072;2023-07-13T05:59:12;21.20;88.30
13707;DHT22;6925;47.816;13.072;2023-07-13T06:01:39;21.30;88.30
13707;DHT22;6925;47.816;13.072;2023-07-13T06:04:07;21.40;88.70
13707;DHT22;6925;47.816;13.072;2023-07-13T06:06:34;21.50;88.30
13707;DHT22;6925;47.816;13.072;2023-07-13T06:09:01;21.60;87.80
13707;DHT22;6925;47.816;13.072;2023-07-13T06:11:28;21.60;87.20
13707;DHT22;6925;47.816;13.072;2023-07-13T06:13:58;21.60;86.90
13707;DHT22;6925;47.816;13.072;2023-07-13T06:16:25;21.60;85.30
13707;DHT22;6925;47.816;13.072;2023-07-13T06:18:52;21.50;86.30
13707;DHT22;6925;47.816;13.072;2023-07-13T06:21:19;21.50;86.90
13707;DHT22;6925;47.816;13.072;2023-07-13T06:23:48;21.60;87.80
13707;DHT22;6925;47.816;13.072;2023-07-13T06:26:16;21.70;88.60
13707;DHT22;6925;47.816;13.072;2023-07-13T06:28:44;21.80;88.20
13707;DHT22;6925;47.816;13.072;2023-07-13T06:31:14;21.90;88.20
13707;DHT22;6925;47.816;13.072;2023-07-13T06:33:41;21.90;87.40
13707;DHT22;6925;47.816;13.072;2023-07-13T06:36:09;22.00;88.10
13707;DHT22;6925;47.816;13.072;2023-07-13T06:38:37;22.00;86.40
13707;DHT22;6925;47.816;13.072;2023-07-13T06:41:05;22.00;86.80
13707;DHT22;6925;47.816;13.072;2023-07-13T06:43:32;22.00;87.40
13707;DHT22;6925;47.816;13.072;2023-07-13T06:45:59;21.90;87.70
13707;DHT22;6925;47.816;13.072;2023-07-13T06:48:28;21.90;86.80
13707;DHT22;6925;47.816;13.072;2023-07-13T06:50:55;21.90;87.50
13707;DHT22;6925;47.816;13.072;2023-07-13T06:53:23;22.00;88.20
13707;DHT22;6925;47.816;13.072;2023-07-13T06:55:50;22.00;88.20
13707;DHT22;6925;47.816;13.072;2023-07-13T06:58:18;22.10;89.10
13707;DHT22;6925;47.816;13.072;2023-07-13T07:00:46;22.10;87.80
13707;DHT22;6925;47.816;13.072;2023-07-13T07:03:13;22.10;86.50
13707;DHT22;6925;47.816;13.072;2023-07-13T07:05:41;22.20;87.00
13707;DHT22;6925;47.816;13.072;2023-07-13T07:08:09;22.10;87.50
13707;DHT22;6925;47.816;13.072;2023-07-13T07:10:36;22.10;87.80
13707;DHT22;6925;47.816;13.072;2023-07-13T07:13:03;22.20;87.90
13707;DHT22;6925;47.816;13.072;2023-07-13T07:15:30;22.20;88.30
13707;DHT22;6925;47.816;13.072;2023-07-13T07:17:57;22.20;86.50
13707;DHT22;6925;47.816;13.072;2023-07-13T07:20:24;22.20;87.80
13707;DHT22;6925;47.816;13.072;2023-07-13T07:22:53;22.30;87.60
13707;DHT22;6925;47.816;13.072;2023-07-13T07:25:21;22.30;87.30
13707;DHT22;6925;47.816;13.072;2023-07-13T07:27:48;22.30;88.30
13707;DHT22;6925;47.816;13.072;2023-07-13T07:30:15;22.40;87.10
13707;DHT22;6925;47.816;13.072;2023-07-13T07:32:41;22.40;85.80
13707;DHT22;6925;47.816;13.072;2023-07-13T07:35:09;22.30;84.50
13707;DHT22;6925;47.816;13.072;2023-07-13T07:37:36;22.30;84.80
13707;DHT22;6925;47.816;13.072;2023-07-13T07:40:06;22.30;86.10
13707;DHT22;6925;47.816;13.072;2023-07-13T07:42:33;22.40;84.60
13707;DHT22;6925;47.816;13.072;2023-07-13T07:45:01;22.40;85.00
13707;DHT22;6925;47.816;13.072;2023-07-13T07:47:28;22.40;85.30
13707;DHT22;6925;47.816;13.072;2023-07-13T07:49:55;22.50;85.90
13707;DHT22;6925;47.816;13.072;2023-07-13T07:52:22;22.50;87.60
13707;DHT22;6925;47.816;13.072;2023-07-13T07:54:49;22.70;85.30
13707;DHT22;6925;47.816;13.072;2023-07-13T07:57:17;22.70;83.50
13707;DHT22;6925;47.816;13.072;2023-07-13T07:59:44;22.60;82.50
13707;DHT22;6925;47.816;13.072;2023-07-13T08:02:12;22.50;80.80
13707;DHT22;6925;47.816;13.072;2023-07-13T08:04:39;22.50;81.60
13707;DHT22;6925;47.816;13.072;2023-07-13T08:07:05;22.40;81.30
13707;DHT22;6925;47.816;13.072;2023-07-13T08:09:32;22.50;81.70
13707;DHT22;6925;47.816;13.072;2023-07-13T08:12:00;22.50;80.40
13707;DHT22;6925;47.816;13.072;2023-07-13T08:14:28;22.50;82.00
13707;DHT22;6925;47.816;13.072;2023-07-13T08:16:55;22.50;83.20
13707;DHT22;6925;47.816;13.072;2023-07-13T08:19:22;22.60;83.10
13707;DHT22;6925;47.816;13.072;2023-07-13T08:21:49;22.70;82.70
13707;DHT22;6925;47.816;13.072;2023-07-13T08:24:17;22.70;81.50
13707;DHT22;6925;47.816;13.072;2023-07-13T08:26:44;22.60;82.60
13707;DHT22;6925;47.816;13.072;2023-07-13T08:29:12;22.60;83.20
13707;DHT22;6925;47.816;13.072;2023-07-13T08:31:40;22.70;83.50
13707;DHT22;6925;47.816;13.072;2023-07-13T08:34:07;22.70;83.70
13707;DHT22;6925;47.816;13.072;2023-07-13T08:36:34;22.70;82.50
13707;DHT22;6925;47.816;13.072;2023-07-13T08:39:00;22.70;83.30
13707;DHT22;6925;47.816;13.072;2023-07-13T08:41:28;22.70;83.40
13707;DHT22;6925;47.816;13.072;2023-07-13T08:43:57;22.70;83.90
13707;DHT22;6925;47.816;13.072;2023-07-13T08:46:28;22.70;84.20
13707;DHT22;6925;47.816;13.072;2023-07-13T08:49:02;22.80;84.30
13707;DHT22;6925;47.816;13.072;2023-07-13T08:51:35;22.80;84.10
13707;DHT22;6925;47.816;13.072;2023-07-13T08:54:18;22.80;83.10
13707;DHT22;6925;47.816;13.072;2023-07-13T08:56:46;22.80;83.60
13707;DHT22;6925;47.816;13.072;2023-07-13T08:59:16;22.80;83.50
13707;DHT22;6925;47.816;13.072;2023-07-13T09:01:56;22.80;81.40
13707;DHT22;6925;47.816;13.072;2023-07-13T09:04:29;22.70;81.50
13707;DHT22;6925;47.816;13.072;2023-07-13T09:07:04;22.70;83.40
13707;DHT22;6925;47.816;13.072;2023-07-13T09:09:41;22.70;82.30
13707;DHT22;6925;47.816;13.072;2023-07-13T09:12:15;22.70;82.50
13707;DHT22;6925;47.816;13.072;2023-07-13T09:14:47;22.70;82.70
13707;DHT22;6925;47.816;13.072;2023-07-13T09:17:19;22.70;83.10
13707;DHT22;6925;47.816;13.072;2023-07-13T09:19:55;22.70;82.90
13707;DHT22;6925;47.816;13.072;2023-07-13T09:22:24;22.80;82.20
13707;DHT22;6925;47.816;13.072;2023-07-13T09:24:59;22.80;81.10
13707;DHT22;6925;47.816;13.072;2023-07-13T09:27:35;22.70;80.10
13707;DHT22;6925;47.816;13.072;2023-07-13T09:30:21;22.70;81.60
13707;DHT22;6925;47.816;13.072;2023-07-13T09:32:52;22.70;81.50
13707;DHT22;6925;47.816;13.072;2023-07-13T09:35:25;22.70;82.40
13707;DHT22;6925;47.816;13.072;2023-07-13T09:37:58;22.70;81.90
13707;DHT22;6925;47.816;13.072;2023-07-13T09:40:35;22.70;81.80
13707;DHT22;6925;47.816;13.072;2023-07-13T09:43:04;22.70;80.80
13707;DHT22;6925;47.816;13.072;2023-07-13T09:45:33;22.70;82.30
13707;DHT22;6925;47.816;13.072;2023-07-13T09:48:06;22.70;82.40
13707;DHT22;6925;47.816;13.072;2023-07-13T09:50:35;22.70;81.80
13707;DHT22;6925;47.816;13.072;2023-07-13T09:53:02;22.80;81.10
13707;DHT22;6925;47.816;13.072;2023-07-13T09:55:32;22.80;81.60
13707;DHT22;6925;47.816;13.072;2023-07-13T09:58:04;22.90;82.80
13707;DHT22;6925;47.816;13.072;2023-07-13T10:00:32;22.90;79.90
13707;DHT22;6925;47.816;13.072;2023-07-13T10:03:04;22.90;80.80
13707;DHT22;6925;47.816;13.072;2023-07-13T10:05:41;23.00;81.20
13707;DHT22;6925;47.816;13.072;2023-07-13T10:08:28;23.10;82.60
13707;DHT22;6925;47.816;13.072;2023-07-13T10:11:00;23.10;81.10
13707;DHT22;6925;47.816;13.072;2023-07-13T10:13:32;23.20;78.90
13707;DHT22;6925;47.816;13.072;2023-07-13T10:16:00;23.10;78.20
13707;DHT22;6925;47.816;13.072;2023-07-13T10:18:29;23.20;78.20
13707;DHT22;6925;47.816;13.072;2023-07-13T10:21:11;23.20;79.30
13707;DHT22;6925;47.816;13.072;2023-07-13T10:23:39;23.20;78.30
13707;DHT22;6925;47.816;13.072;2023-07-13T10:26:12;23.20;79.50
13707;DHT22;6925;47.816;13.072;2023-07-13T10:28:41;23.30;78.90
13707;DHT22;6925;47.816;13.072;2023-07-13T10:31:13;23.30;76.10
13707;DHT22;6925;47.816;13.072;2023-07-13T10:33:40;23.20;76.30
13707;DHT22;6925;47.816;13.072;2023-07-13T10:36:16;23.30;78.40
13707;DHT22;6925;47.816;13.072;2023-07-13T10:38:45;23.40;76.70
13707;DHT22;6925;47.816;13.072;2023-07-13T10:41:17;23.40;76.30
13707;DHT22;6925;47.816;13.072;2023-07-13T10:43:47;23.40;77.20
13707;DHT22;6925;47.816;13.072;2023-07-13T10:46:18;23.40;74.60
13707;DHT22;6925;47.816;13.072;2023-07-13T10:48:49;23.40;76.50
13707;DHT22;6925;47.816;13.072;2023-07-13T10:51:19;23.50;77.70
13707;DHT22;6925;47.816;13.072;2023-07-13T10:53:48;23.60;74.80
13707;DHT22;6925;47.816;13.072;2023-07-13T10:56:39;23.50;75.50
13707;DHT22;6925;47.816;13.072;2023-07-13T10:59:11;23.60;75.20
13707;DHT22;6925;47.816;13.072;2023-07-13T11:01:49;23.60;76.10
13707;DHT22;6925;47.816;13.072;2023-07-13T11:04:18;23.70;76.40
13707;DHT22;6925;47.816;13.072;2023-07-13T11:06:48;23.70;76.10
13707;DHT22;6925;47.816;13.072;2023-07-13T11:09:32;23.90;76.40
13707;DHT22;6925;47.816;13.072;2023-07-13T11:12:00;23.90;73.70
13707;DHT22;6925;47.816;13.072;2023-07-13T11:14:35;23.70;71.60
13707;DHT22;6925;47.816;13.072;2023-07-13T11:17:32;23.70;72.90
13707;DHT22;6925;47.816;13.072;2023-07-13T11:20:18;23.40;68.50
13707;DHT22;6925;47.816;13.072;2023-07-13T11:22:49;23.20;70.00
13707;DHT22;6925;47.816;13.072;2023-07-13T11:25:28;23.20;72.50
13707;DHT22;6925;47.816;13.072;2023-07-13T11:28:14;23.40;73.70
13707;DHT22;6925;47.816;13.072;2023-07-13T11:30:45;23.40;73.70
13707;DHT22;6925;47.816;13.072;2023-07-13T11:33:18;23.50;75.40
13707;DHT22;6925;47.816;13.072;2023-07-13T11:35:53;23.70;76.20
13707;DHT22;6925;47.816;13.072;2023-07-13T11:38:42;23.70;74.80
13707;DHT22;6925;47.816;13.072;2023-07-13T11:41:16;23.70;74.30
13707;DHT22;6925;47.816;13.072;2023-07-13T11:43:44;23.80;76.80
13707;DHT22;6925;47.816;13.072;2023-07-13T11:46:16;23.90;75.20
13707;DHT22;6925;47.816;13.072;2023-07-13T11:48:45;24.00;74.30
13707;DHT22;6925;47.816;13.072;2023-07-13T11:51:19;24.00;74.50
13707;DHT22;6925;47.816;13.072;2023-07-13T11:53:50;24.00;75.00
13707;DHT22;6925;47.816;13.072;2023-07-13T11:56:18;23.90;73.10
13707;DHT22;6925;47.816;13.072;2023-07-13T11:58:49;23.90;73.80
13707;DHT22;6925;47.816;13.072;2023-07-13T12:01:20;23.90;75.50
13707;DHT22;6925;47.816;13.072;2023-07-13T12:03:48;23.90;74.60
13707;DHT22;6925;47.816;13.072;2023-07-13T12:06:26;23.90;75.00
13707;DHT22;6925;47.816;13.072;2023-07-13T12:08:57;23.80;72.10
13707;DHT22;6925;47.816;13.072;2023-07-13T12:11:25;23.80;73.70
13707;DHT22;6925;47.816;13.072;2023-07-13T12:13:52;23.80;73.90
13707;DHT22;6925;47.816;13.072;2023-07-13T12:16:27;23.50;68.60
13707;DHT22;6925;47.816;13.072;2023-07-13T12:18:55;23.20;67.20
13707;DHT22;6925;47.816;13.072;2023-07-13T12:21:31;23.00;68.30
13707;DHT22;6925;47.816;13.072;2023-07-13T12:24:00;22.80;68.60
13707;DHT22;6925;47.816;13.072;2023-07-13T12:26:30;22.80;69.50
13707;DHT22;6925;47.816;13.072;2023-07-13T12:29:01;22.80;70.10
13707;DHT22;6925;47.816;13.072;2023-07-13T12:31:36;22.70;70.00
13707;DHT22;6925;47.816;13.072;2023-07-13T12:34:08;22.60;70.10
13707;DHT22;6925;47.816;13.072;2023-07-13T12:36:38;22.50;70.70
13707;DHT22;6925;47.816;13.072;2023-07-13T12:39:17;22.50;71.40
13707;DHT22;6925;47.816;13.072;2023-07-13T12:41:46;22.50;71.60
13707;DHT22;6925;47.816;13.072;2023-07-13T12:44:15;22.60;72.10
13707;DHT22;6925;47.816;13.072;2023-07-13T12:46:56;22.60;71.50
13707;DHT22;6925;47.816;13.072;2023-07-13T12:49:28;22.70;71.20
13707;DHT22;6925;47.816;13.072;2023-07-13T12:51:57;22.70;70.70
13707;DHT22;6925;47.816;13.072;2023-07-13T12:54:27;22.70;72.00
13707;DHT22;6925;47.816;13.072;2023-07-13T12:56:55;22.80;72.30
13707;DHT22;6925;47.816;13.072;2023-07-13T12:59:26;22.90;72.10
13707;DHT22;6925;47.816;13.072;2023-07-13T13:01:56;23.00;69.90
13707;DHT22;6925;47.816;13.072;2023-07-13T13:04:23;22.90;70.80
13707;DHT22;6925;47.816;13.072;2023-07-13T13:07:01;23.00;70.70
13707;DHT22;6925;47.816;13.072;2023-07-13T13:09:30;23.10;71.90
13707;DHT22;6925;47.816;13.072;2023-07-13T13:11:57;23.20;72.70
13707;DHT22;6925;47.816;13.072;2023-07-13T13:14:24;23.40;71.70
13707;DHT22;6925;47.816;13.072;2023-07-13T13:16:52;23.70;72.50
13707;DHT22;6925;47.816;13.072;2023-07-13T13:19:22;23.70;70.00
13707;DHT22;6925;47.816;13.072;2023-07-13T13:21:50;23.90;68.40
13707;DHT22;6925;47.816;13.072;2023-07-13T13:24:20;24.10;69.90
13707;DHT22;6925;47.816;13.072;2023-07-13T13:26:49;24.30;67.30
13707;DHT22;6925;47.816;13.072;2023-07-13T13:29:19;24.40;67.00
13707;DHT22;6925;47.816;13.072;2023-07-13T13:31:47;24.60;67.00
13707;DHT22;6925;47.816;13.072;2023-07-13T13:34:16;24.90;65.10
13707;DHT22;6925;47.816;13.072;2023-07-13T13:36:44;25.00;65.70
13707;DHT22;6925;47.816;13.072;2023-07-13T13:39:20;25.10;63.30
13707;DHT22;6925;47.816;13.072;2023-07-13T13:41:50;25.20;63.60
13707;DHT22;6925;47.816;13.072;2023-07-13T13:44:19;25.40;63.10
13707;DHT22;6925;47.816;13.072;2023-07-13T13:46:48;25.50;61.60
13707;DHT22;6925;47.816;13.072;2023-07-13T13:49:17;25.60;60.80
13707;DHT22;6925;47.816;13.072;2023-07-13T13:51:45;25.80;60.40
13707;DHT22;6925;47.816;13.072;2023-07-13T13:54:13;26.00;60.80
13707;DHT22;6925;47.816;13.072;2023-07-13T13:56:42;26.20;58.60
13707;DHT22;6925;47.816;13.072;2023-07-13T13:59:11;26.30;58.50
13707;DHT22;6925;47.816;13.072;2023-07-13T14:01:39;26.50;59.60
13707;DHT22;6925;47.816;13.072;2023-07-13T14:04:06;26.80;58.00
13707;DHT22;6925;47.816;13.072;2023-07-13T14:06:35;26.90;57.20
13707;DHT22;6925;47.816;13.072;2023-07-13T14:09:04;27.10;56.20
13707;DHT22;6925;47.816;13.072;2023-07-13T14:11:34;27.10;55.30
13707;DHT22;6925;47.816;13.072;2023-07-13T14:14:02;27.10;55.80
13707;DHT22;6925;47.816;13.072;2023-07-13T14:16:32;27.20;55.20
13707;DHT22;6925;47.816;13.072;2023-07-13T14:19:00;27.30;53.60
13707;DHT22;6925;47.816;13.072;2023-07-13T14:21:28;27.40;54.60
13707;DHT22;6925;47.816;13.072;2023-07-13T14:23:56;27.40;53.80
13707;DHT22;6925;47.816;13.072;2023-07-13T14:26:25;27.50;54.00
13707;DHT22;6925;47.816;13.072;2023-07-13T14:28:54;27.50;52.40
13707;DHT22;6925;47.816;13.072;2023-07-13T14:31:23;27.50;54.00
13707;DHT22;6925;47.816;13.072;2023-07-13T14:33:52;27.40;52.20
13707;DHT22;6925;47.816;13.072;2023-07-13T14:36:27;27.40;52.80
13707;DHT22;6925;47.816;13.072;2023-07-13T14:38:55;27.50;53.00
13707;DHT22;6925;47.816;13.072;2023-07-13T14:41:22;27.70;53.60
13707;DHT22;6925;47.816;13.072;2023-07-13T14:43:50;27.80;53.10
13707;DHT22;6925;47.816;13.072;2023-07-13T14:46:24;27.90;52.90
13707;DHT22;6925;47.816;13.072;2023-07-13T14:49:00;27.90;52.00
13707;DHT22;6925;47.816;13.072;2023-07-13T14:51:28;27.90;51.50
13707;DHT22;6925;47.816;13.072;2023-07-13T14:53:55;27.70;52.70
13707;DHT22;6925;47.816;13.072;2023-07-13T14:56:22;27.90;51.90
13707;DHT22;6925;47.816;13.072;2023-07-13T14:58:49;28.00;52.10
13707;DHT22;6925;47.816;13.072;2023-07-13T15:01:18;28.10;51.90
13707;DHT22;6925;47.816;13.072;2023-07-13T15:03:49;28.10;50.20
13707;DHT22;6925;47.816;13.072;2023-07-13T15:06:19;28.00;51.40
13707;DHT22;6925;47.816;13.072;2023-07-13T15:08:46;28.20;50.90
13707;DHT22;6925;47.816;13.072;2023-07-13T15:11:15;28.30;49.50
13707;DHT22;6925;47.816;13.072;2023-07-13T15:13:42;28.20;49.70
13707;DHT22;6925;47.816;13.072;2023-07-13T15:16:15;28.10;49.30
13707;DHT22;6925;47.816;13.072;2023-07-13T15:18:44;28.00;49.90
13707;DHT22;6925;47.816;13.072;2023-07-13T15:21:16;28.00;50.00
13707;DHT22;6925;47.816;13.072;2023-07-13T15:23:46;28.00;50.00
13707;DHT22;6925;47.816;13.072;2023-07-13T15:26:14;28.00;50.00
13707;DHT22;6925;47.816;13.072;2023-07-13T15:28:42;27.90;50.70
13707;DHT22;6925;47.816;13.072;2023-07-13T15:31:19;27.70;51.10
13707;DHT22;6925;47.816;13.072;2023-07-13T15:33:46;27.70;52.20
13707;DHT22;6925;47.816;13.072;2023-07-13T15:36:15;27.80;52.30
13707;DHT22;6925;47.816;13.072;2023-07-13T15:38:43;27.80;52.30
13707;DHT22;6925;47.816;13.072;2023-07-13T15:41:17;27.80;50.60
13707;DHT22;6925;47.816;13.072;2023-07-13T15:43:46;27.70;51.80